createdAt,value
2022-08-31T00:00:38.357Z,980.38
2022-08-31T00:01:38.456Z,980.32
2022-08-31T00:02:38.490Z,980.37
2022-08-31T00:03:38.456Z,980.38
2022-08-31T00:04:38.402Z,980.28
2022-08-31T00:05:38.446Z,980.33
2022-08-31T00:06:38.287Z,980.37
2022-08-31T00:07:38.337Z,980.33
2022-08-31T00:08:38.278Z,980.38
2022-08-31T00:09:38.437Z,980.36
2022-08-31T00:10:38.277Z,980.37
2022-08-31T00:11:38.222Z,980.33
2022-08-31T00:12:38.213Z,980.39
2022-08-31T00:13:38.253Z,980.39
2022-08-31T00:14:38.280Z,980.35
2022-08-31T00:15:38.161Z,980.41
2022-08-31T00:16:38.393Z,980.37
2022-08-31T00:17:38.121Z,980.40
2022-08-31T00:18:38.201Z,980.41
2022-08-31T00:19:38.121Z,980.35
2022-08-31T00:20:38.276Z,980.39
2022-08-31T00:21:38.122Z,980.40
2022-08-31T00:22:38.286Z,980.43
2022-08-31T00:23:38.146Z,980.39
2022-08-31T00:24:38.096Z,980.41
2022-08-31T00:25:38.126Z,980.41
2022-08-31T00:26:37.996Z,980.40
2022-08-31T00:27:38.116Z,980.40
2022-08-31T00:28:37.988Z,980.42
2022-08-31T00:29:38.240Z,980.40
2022-08-31T00:30:37.965Z,980.43
2022-08-31T00:31:38.204Z,980.39
2022-08-31T00:32:37.969Z,980.42
2022-08-31T00:33:37.907Z,980.48
2022-08-31T00:34:38.041Z,980.49
2022-08-31T00:35:38.132Z,980.39
2022-08-31T00:36:37.952Z,980.39
2022-08-31T00:37:37.861Z,980.40
2022-08-31T00:38:37.981Z,980.40
2022-08-31T00:39:37.901Z,980.37
2022-08-31T00:40:37.977Z,980.43
2022-08-31T00:41:37.802Z,980.44
2022-08-31T00:42:37.970Z,980.40
2022-08-31T00:43:37.811Z,980.46
2022-08-31T00:44:37.971Z,980.45
2022-08-31T00:45:37.994Z,980.46
2022-08-31T00:46:37.988Z,980.47
2022-08-31T00:47:37.806Z,980.47
2022-08-31T00:48:37.715Z,980.49
2022-08-31T00:49:37.885Z,980.47
2022-08-31T00:50:37.985Z,980.47
2022-08-31T00:51:37.807Z,980.43
2022-08-31T00:52:38.143Z,980.43
2022-08-31T00:53:37.797Z,980.39
2022-08-31T00:54:37.636Z,980.40
2022-08-31T00:55:37.876Z,980.39
2022-08-31T00:56:37.660Z,980.42
2022-08-31T00:57:37.591Z,980.42
2022-08-31T00:58:37.650Z,980.42
2022-08-31T00:59:37.790Z,980.40
2022-08-31T01:00:37.843Z,980.37
2022-08-31T01:01:37.890Z,980.42
2022-08-31T01:02:37.704Z,980.40
2022-08-31T01:03:37.511Z,980.41
2022-08-31T01:04:37.646Z,980.40
2022-08-31T01:05:37.560Z,980.42
2022-08-31T01:06:37.659Z,980.41
2022-08-31T01:07:37.517Z,980.37
2022-08-31T01:08:37.656Z,980.41
2022-08-31T01:09:37.507Z,980.40
2022-08-31T01:10:37.416Z,980.45
2022-08-31T01:11:37.575Z,980.42
2022-08-31T01:12:37.636Z,980.37
2022-08-31T01:13:37.485Z,980.39
2022-08-31T01:14:37.376Z,980.39
2022-08-31T01:15:37.485Z,980.38
2022-08-31T01:16:37.462Z,980.35
2022-08-31T01:17:37.476Z,980.40
2022-08-31T01:18:37.341Z,980.35
2022-08-31T01:19:37.313Z,980.36
2022-08-31T01:20:37.331Z,980.39
2022-08-31T01:21:37.352Z,980.36
2022-08-31T01:22:37.321Z,980.38
2022-08-31T01:23:37.491Z,980.38
2022-08-31T01:24:37.332Z,980.36
2022-08-31T01:25:37.231Z,980.36
2022-08-31T01:26:37.330Z,980.36
2022-08-31T01:27:37.251Z,980.33
2022-08-31T01:28:37.161Z,980.34
2022-08-31T01:29:37.185Z,980.36
2022-08-31T01:30:37.348Z,980.33
2022-08-31T01:31:37.206Z,980.41
2022-08-31T01:32:37.216Z,980.39
2022-08-31T01:33:37.158Z,980.36
2022-08-31T01:34:37.098Z,980.37
2022-08-31T01:35:37.177Z,980.36
2022-08-31T01:36:37.065Z,980.37
2022-08-31T01:37:37.186Z,980.37
2022-08-31T01:38:37.116Z,980.34
2022-08-31T01:39:37.016Z,980.34
2022-08-31T01:40:37.059Z,980.34
2022-08-31T01:41:36.991Z,980.33
2022-08-31T01:42:37.024Z,980.30
2022-08-31T01:43:36.971Z,980.29
2022-08-31T01:44:37.072Z,980.31
2022-08-31T01:45:37.182Z,980.35
2022-08-31T01:46:37.053Z,980.33
2022-08-31T01:47:37.183Z,980.31
2022-08-31T01:48:37.021Z,980.32
2022-08-31T01:49:37.233Z,980.34
2022-08-31T01:50:37.002Z,980.27
2022-08-31T01:51:36.872Z,980.27
2022-08-31T01:52:36.856Z,980.19
2022-08-31T01:53:36.867Z,980.22
2022-08-31T01:54:36.826Z,980.25
2022-08-31T01:55:36.866Z,980.22
2022-08-31T01:56:37.035Z,980.24
2022-08-31T01:57:36.846Z,980.28
2022-08-31T01:58:37.016Z,980.27
2022-08-31T01:59:36.868Z,980.25
2022-08-31T02:00:37.138Z,980.29
2022-08-31T02:01:36.933Z,980.31
2022-08-31T02:02:36.814Z,980.22
2022-08-31T02:03:36.862Z,980.21
2022-08-31T02:04:36.701Z,980.22
2022-08-31T02:05:36.943Z,980.25
2022-08-31T02:06:36.702Z,980.23
2022-08-31T02:07:36.863Z,980.16
2022-08-31T02:08:36.700Z,980.20
2022-08-31T02:09:36.636Z,980.20
2022-08-31T02:10:36.701Z,980.22
2022-08-31T02:11:36.672Z,980.14
2022-08-31T02:12:36.681Z,980.19
2022-08-31T02:13:36.571Z,980.16
2022-08-31T02:14:36.685Z,980.15
2022-08-31T02:15:36.546Z,980.15
2022-08-31T02:16:36.735Z,980.10
2022-08-31T02:17:36.546Z,980.09
2022-08-31T02:18:36.678Z,980.12
2022-08-31T02:19:36.528Z,980.06
2022-08-31T02:20:36.675Z,980.06
2022-08-31T02:21:36.934Z,980.07
2022-08-31T02:22:36.457Z,980.09
2022-08-31T02:23:36.516Z,980.08
2022-08-31T02:24:36.711Z,980.11
2022-08-31T02:25:36.536Z,980.12
2022-08-31T02:26:36.700Z,980.16
2022-08-31T02:27:36.542Z,980.11
2022-08-31T02:28:36.381Z,980.14
2022-08-31T02:29:36.534Z,980.16
2022-08-31T02:30:36.371Z,980.18
2022-08-31T02:31:36.429Z,980.12
2022-08-31T02:32:36.431Z,980.07
2022-08-31T02:33:36.541Z,980.14
2022-08-31T02:34:36.360Z,980.08
2022-08-31T02:35:36.542Z,980.09
2022-08-31T02:36:36.372Z,980.06
2022-08-31T02:37:36.616Z,980.10
2022-08-31T02:38:36.377Z,980.03
2022-08-31T02:39:36.226Z,980.01
2022-08-31T02:40:36.442Z,980.03
2022-08-31T02:41:36.226Z,980.00
2022-08-31T02:42:52.164Z,980.03
2022-08-31T02:43:36.266Z,980.02
2022-08-31T02:44:36.356Z,979.98
2022-08-31T02:45:36.201Z,979.97
2022-08-31T02:46:36.454Z,979.98
2022-08-31T02:47:36.216Z,979.98
2022-08-31T02:48:36.463Z,979.98
2022-08-31T02:49:36.226Z,979.98
2022-08-31T02:50:36.111Z,979.93
2022-08-31T02:51:36.221Z,979.94
2022-08-31T02:52:36.043Z,979.93
2022-08-31T02:53:36.220Z,979.90
2022-08-31T02:54:36.061Z,979.86
2022-08-31T02:55:36.201Z,979.89
2022-08-31T02:56:36.070Z,979.91
2022-08-31T02:57:36.222Z,979.92
2022-08-31T02:58:36.374Z,979.92
2022-08-31T02:59:36.226Z,979.91
2022-08-31T03:00:36.082Z,979.94
2022-08-31T03:01:35.991Z,979.92
2022-08-31T03:02:36.143Z,979.94
2022-08-31T03:03:35.906Z,979.95
2022-08-31T03:04:36.066Z,979.89
2022-08-31T03:05:35.878Z,979.96
2022-08-31T03:06:36.067Z,979.95
2022-08-31T03:07:35.895Z,979.88
2022-08-31T03:08:35.897Z,979.94
2022-08-31T03:09:35.895Z,979.95
2022-08-31T03:10:36.059Z,979.98
2022-08-31T03:11:35.892Z,979.99
2022-08-31T03:12:35.792Z,980.02
2022-08-31T03:13:35.890Z,979.95
2022-08-31T03:14:35.820Z,979.99
2022-08-31T03:15:35.989Z,980.02
2022-08-31T03:16:35.741Z,979.96
2022-08-31T03:17:35.881Z,979.99
2022-08-31T03:18:35.731Z,979.98
2022-08-31T03:19:35.950Z,980.02
2022-08-31T03:20:35.721Z,979.98
2022-08-31T03:21:35.691Z,979.99
2022-08-31T03:22:35.750Z,980.02
2022-08-31T03:23:35.905Z,980.00
2022-08-31T03:24:35.797Z,980.02
2022-08-31T03:25:35.616Z,980.03
2022-08-31T03:26:35.748Z,980.00
2022-08-31T03:27:35.585Z,980.06
2022-08-31T03:28:35.727Z,980.00
2022-08-31T03:29:35.677Z,980.05
2022-08-31T03:30:35.716Z,980.05
2022-08-31T03:31:35.616Z,980.04
2022-08-31T03:32:35.516Z,980.04
2022-08-31T03:33:35.576Z,980.08
2022-08-31T03:34:35.741Z,980.08
2022-08-31T03:35:35.641Z,980.00
2022-08-31T03:36:35.471Z,980.02
2022-08-31T03:37:35.581Z,980.07
2022-08-31T03:38:35.461Z,980.01
2022-08-31T03:39:35.581Z,980.04
2022-08-31T03:40:35.545Z,980.01
2022-08-31T03:41:35.590Z,980.02
2022-08-31T03:42:35.403Z,980.03
2022-08-31T03:43:35.563Z,980.03
2022-08-31T03:44:35.423Z,980.04
2022-08-31T03:45:35.425Z,980.04
2022-08-31T03:46:35.500Z,980.05
2022-08-31T03:47:35.319Z,980.05
2022-08-31T03:48:35.407Z,980.03
2022-08-31T03:49:35.307Z,980.02
2022-08-31T03:50:35.476Z,980.05
2022-08-31T03:51:35.256Z,980.04
2022-08-31T03:52:35.246Z,980.10
2022-08-31T03:53:35.236Z,980.05
2022-08-31T03:54:35.216Z,980.07
2022-08-31T03:55:35.245Z,980.11
2022-08-31T03:56:35.259Z,980.04
2022-08-31T03:57:35.265Z,980.07
2022-08-31T03:58:35.401Z,980.01
2022-08-31T03:59:35.264Z,980.04
2022-08-31T04:00:35.426Z,980.02
2022-08-31T04:01:35.666Z,980.04
2022-08-31T04:02:37.586Z,980.03
2022-08-31T04:03:35.241Z,980.01
2022-08-31T04:04:35.153Z,980.03
2022-08-31T04:05:35.072Z,980.05
2022-08-31T04:06:35.181Z,980.08
2022-08-31T04:07:42.474Z,980.08
2022-08-31T04:08:35.106Z,980.03
2022-08-31T04:09:35.035Z,980.06
2022-08-31T04:10:35.110Z,980.04
2022-08-31T04:11:45.323Z,980.04
2022-08-31T04:12:35.185Z,980.00
2022-08-31T04:13:35.235Z,980.01
2022-08-31T04:14:34.956Z,980.06
2022-08-31T04:15:35.009Z,980.05
2022-08-31T04:16:34.925Z,980.04
2022-08-31T04:17:34.999Z,980.13
2022-08-31T04:18:34.911Z,980.16
2022-08-31T04:19:34.952Z,980.17
2022-08-31T04:20:34.891Z,980.17
2022-08-31T04:21:34.873Z,980.10
2022-08-31T04:22:35.219Z,980.15
2022-08-31T04:23:34.923Z,980.14
2022-08-31T04:24:35.090Z,980.14
2022-08-31T04:25:34.922Z,980.18
2022-08-31T04:26:34.794Z,980.15
2022-08-31T04:27:34.854Z,980.13
2022-08-31T04:28:34.762Z,980.14
2022-08-31T04:29:34.752Z,980.12
2022-08-31T04:30:34.770Z,980.13
2022-08-31T04:31:34.835Z,980.11
2022-08-31T04:32:34.778Z,980.12
2022-08-31T04:33:35.006Z,980.10
2022-08-31T04:34:34.768Z,980.13
2022-08-31T04:35:34.947Z,980.06
2022-08-31T04:36:34.756Z,980.10
2022-08-31T04:37:34.645Z,980.10
2022-08-31T04:38:34.727Z,980.04
2022-08-31T04:39:34.619Z,980.07
2022-08-31T04:40:34.790Z,980.10
2022-08-31T04:41:34.617Z,980.07
2022-08-31T04:42:34.772Z,980.11
2022-08-31T04:43:34.702Z,980.17
2022-08-31T04:44:34.771Z,980.16
2022-08-31T04:45:34.660Z,980.11
2022-08-31T04:46:34.771Z,980.14
2022-08-31T04:47:34.621Z,980.14
2022-08-31T04:48:34.562Z,980.17
2022-08-31T04:49:34.621Z,980.14
2022-08-31T04:50:34.649Z,980.17
2022-08-31T04:51:34.495Z,980.18
2022-08-31T04:52:34.521Z,980.14
2022-08-31T04:53:34.621Z,980.06
2022-08-31T04:54:34.466Z,980.18
2022-08-31T04:55:34.418Z,980.12
2022-08-31T04:56:34.456Z,980.08
2022-08-31T04:57:34.385Z,980.10
2022-08-31T04:58:34.526Z,980.14
2022-08-31T04:59:34.358Z,980.16
2022-08-31T05:00:34.456Z,980.10
2022-08-31T05:01:38.649Z,980.18
2022-08-31T05:02:34.475Z,980.17
2022-08-31T05:03:34.358Z,980.18
2022-08-31T05:04:34.286Z,980.16
2022-08-31T05:05:34.303Z,980.18
2022-08-31T05:06:34.301Z,980.21
2022-08-31T05:07:34.314Z,980.17
2022-08-31T05:08:34.793Z,980.24
2022-08-31T05:09:34.283Z,980.21
2022-08-31T05:10:34.211Z,980.24
2022-08-31T05:11:34.301Z,980.24
2022-08-31T05:12:34.454Z,980.27
2022-08-31T05:13:34.363Z,980.28
2022-08-31T05:14:34.151Z,980.33
2022-08-31T05:15:34.383Z,980.29
2022-08-31T05:16:34.135Z,980.35
2022-08-31T05:17:34.116Z,980.34
2022-08-31T05:18:34.466Z,980.36
2022-08-31T05:19:37.975Z,980.33
2022-08-31T05:20:34.136Z,980.40
2022-08-31T05:21:34.310Z,980.32
2022-08-31T05:22:34.116Z,980.42
2022-08-31T05:23:34.357Z,980.42
2022-08-31T05:24:34.117Z,980.42
2022-08-31T05:25:33.995Z,980.44
2022-08-31T05:26:34.126Z,980.43
2022-08-31T05:27:34.001Z,980.43
2022-08-31T05:28:33.971Z,980.45
2022-08-31T05:29:34.060Z,980.45
2022-08-31T05:30:33.952Z,980.50
2022-08-31T05:31:34.008Z,980.54
2022-08-31T05:32:34.063Z,980.50
2022-08-31T05:33:33.980Z,980.45
2022-08-31T05:34:34.468Z,980.53
2022-08-31T05:35:33.980Z,980.51
2022-08-31T05:36:33.851Z,980.52
2022-08-31T05:37:33.961Z,980.53
2022-08-31T05:38:34.133Z,980.47
2022-08-31T05:39:34.057Z,980.56
2022-08-31T05:40:33.956Z,980.49
2022-08-31T05:41:33.976Z,980.56
2022-08-31T05:42:33.816Z,980.52
2022-08-31T05:43:33.976Z,980.58
2022-08-31T05:44:34.146Z,980.56
2022-08-31T05:45:33.965Z,980.54
2022-08-31T05:46:33.907Z,980.55
2022-08-31T05:47:33.719Z,980.57
2022-08-31T05:48:33.799Z,980.58
2022-08-31T05:49:33.755Z,980.62
2022-08-31T05:50:33.821Z,980.59
2022-08-31T05:51:38.420Z,980.59
2022-08-31T05:52:33.652Z,980.54
2022-08-31T05:53:33.651Z,980.57
2022-08-31T05:54:33.821Z,980.52
2022-08-31T05:55:33.650Z,980.55
2022-08-31T05:56:33.591Z,980.57
2022-08-31T05:57:33.660Z,980.54
2022-08-31T05:58:33.801Z,980.50
2022-08-31T05:59:33.643Z,980.54
2022-08-31T06:00:33.873Z,980.50
2022-08-31T06:01:33.708Z,980.57
2022-08-31T06:02:33.829Z,980.56
2022-08-31T06:03:33.657Z,980.59
2022-08-31T06:04:33.499Z,980.57
2022-08-31T06:05:33.754Z,980.65
2022-08-31T06:06:33.496Z,980.60
2022-08-31T06:07:33.656Z,980.66
2022-08-31T06:08:33.496Z,980.62
2022-08-31T06:09:33.417Z,980.64
2022-08-31T06:10:33.816Z,980.65
2022-08-31T06:11:33.637Z,980.59
2022-08-31T06:12:33.528Z,980.65
2022-08-31T06:13:33.380Z,980.65
2022-08-31T06:14:33.490Z,980.63
2022-08-31T06:15:33.341Z,980.64
2022-08-31T06:16:33.530Z,980.69
2022-08-31T06:17:33.341Z,980.65
2022-08-31T06:18:33.338Z,980.70
2022-08-31T06:19:33.320Z,980.67
2022-08-31T06:20:33.271Z,980.62
2022-08-31T06:21:33.395Z,980.63
2022-08-31T06:22:33.484Z,980.59
2022-08-31T06:23:33.246Z,980.64
2022-08-31T06:24:33.239Z,980.70
2022-08-31T06:25:33.336Z,980.70
2022-08-31T06:26:33.267Z,980.66
2022-08-31T06:27:33.336Z,980.67
2022-08-31T06:28:33.196Z,980.66
2022-08-31T06:29:33.154Z,980.63
2022-08-31T06:30:33.157Z,980.70
2022-08-31T06:31:33.201Z,980.60
2022-08-31T06:32:33.236Z,980.63
2022-08-31T06:33:33.110Z,980.66
2022-08-31T06:34:33.180Z,980.65
2022-08-31T06:35:33.352Z,980.64
2022-08-31T06:36:33.171Z,980.61
2022-08-31T06:37:33.113Z,980.60
2022-08-31T06:38:33.182Z,980.62
2022-08-31T06:39:33.022Z,980.60
2022-08-31T06:40:33.090Z,980.65
2022-08-31T06:41:36.493Z,980.61
2022-08-31T06:42:33.062Z,980.60
2022-08-31T06:43:33.011Z,980.69
2022-08-31T06:44:33.173Z,980.62
2022-08-31T06:45:33.018Z,980.62
2022-08-31T06:46:33.297Z,980.68
2022-08-31T06:47:33.021Z,980.66
2022-08-31T06:48:33.246Z,980.60
2022-08-31T06:49:33.007Z,980.64
2022-08-31T06:50:32.921Z,980.57
2022-08-31T06:51:32.873Z,980.58
2022-08-31T06:52:36.915Z,980.59
2022-08-31T06:53:32.917Z,980.67
2022-08-31T06:54:32.836Z,980.60
2022-08-31T06:55:32.997Z,980.55
2022-08-31T06:56:32.851Z,980.55
2022-08-31T06:57:33.010Z,980.60
2022-08-31T06:58:32.942Z,980.52
2022-08-31T06:59:33.012Z,980.56
2022-08-31T07:00:32.842Z,980.56
2022-08-31T07:01:35.682Z,980.54
2022-08-31T07:02:32.785Z,980.57
2022-08-31T07:03:32.720Z,980.53
2022-08-31T07:04:32.910Z,980.53
2022-08-31T07:05:32.681Z,980.55
2022-08-31T07:06:32.851Z,980.53
2022-08-31T07:07:32.706Z,980.57
2022-08-31T07:08:32.626Z,980.54
2022-08-31T07:09:32.776Z,980.58
2022-08-31T07:10:32.836Z,980.56
2022-08-31T07:11:32.677Z,980.56
2022-08-31T07:12:32.597Z,980.57
2022-08-31T07:13:32.706Z,980.55
2022-08-31T07:14:32.605Z,980.53
2022-08-31T07:15:32.684Z,980.52
2022-08-31T07:16:32.665Z,980.52
2022-08-31T07:17:32.676Z,980.61
2022-08-31T07:18:32.540Z,980.58
2022-08-31T07:19:32.793Z,980.60
2022-08-31T07:20:32.543Z,980.59
2022-08-31T07:21:32.542Z,980.62
2022-08-31T07:22:32.553Z,980.61
2022-08-31T07:23:32.443Z,980.67
2022-08-31T07:24:32.561Z,980.68
2022-08-31T07:25:32.471Z,980.63
2022-08-31T07:26:36.297Z,980.67
2022-08-31T07:27:32.389Z,980.68
2022-08-31T07:28:32.531Z,980.70
2022-08-31T07:29:32.386Z,980.68
2022-08-31T07:30:33.461Z,980.78
2022-08-31T07:31:32.385Z,980.70
2022-08-31T07:32:32.316Z,980.77
2022-08-31T07:33:32.396Z,980.75
2022-08-31T07:34:32.277Z,980.74
2022-08-31T07:35:32.385Z,980.76
2022-08-31T07:36:32.615Z,980.75
2022-08-31T07:37:32.366Z,980.78
2022-08-31T07:38:32.205Z,980.74
2022-08-31T07:39:32.207Z,980.71
2022-08-31T07:40:32.268Z,980.77
2022-08-31T07:41:32.470Z,980.80
2022-08-31T07:42:32.211Z,980.75
2022-08-31T07:43:32.362Z,980.78
2022-08-31T07:44:32.211Z,980.73
2022-08-31T07:45:35.668Z,980.76
2022-08-31T07:46:32.296Z,980.81
2022-08-31T07:47:32.181Z,980.83
2022-08-31T07:48:32.202Z,980.78
2022-08-31T07:49:32.099Z,980.79
2022-08-31T07:50:32.052Z,980.83
2022-08-31T07:51:32.056Z,980.83
2022-08-31T07:52:32.095Z,980.83
2022-08-31T07:53:32.066Z,980.81
2022-08-31T07:54:32.006Z,980.84
2022-08-31T07:55:32.046Z,980.84
2022-08-31T07:56:34.928Z,980.81
2022-08-31T07:57:32.066Z,980.82
2022-08-31T07:58:32.015Z,980.82
2022-08-31T07:59:31.926Z,980.76
2022-08-31T08:00:31.947Z,980.90
2022-08-31T08:01:32.113Z,980.87
2022-08-31T08:02:32.067Z,980.95
2022-08-31T08:03:32.131Z,980.89
2022-08-31T08:04:31.881Z,980.90
2022-08-31T08:05:32.190Z,980.90
2022-08-31T08:06:32.811Z,980.84
2022-08-31T08:07:31.831Z,980.89
2022-08-31T08:08:32.001Z,980.87
2022-08-31T08:09:31.790Z,980.89
2022-08-31T08:10:31.881Z,980.89
2022-08-31T08:11:31.781Z,980.89
2022-08-31T08:12:31.901Z,980.86
2022-08-31T08:13:31.815Z,980.86
2022-08-31T08:14:31.725Z,980.89
2022-08-31T08:15:31.725Z,980.90
2022-08-31T08:16:31.799Z,980.90
2022-08-31T08:17:31.726Z,980.91
2022-08-31T08:18:31.715Z,980.86
2022-08-31T08:19:31.715Z,980.91
2022-08-31T08:20:34.258Z,980.87
2022-08-31T08:21:31.717Z,980.94
2022-08-31T08:22:51.521Z,980.93
2022-08-31T08:23:31.725Z,980.94
2022-08-31T08:24:31.732Z,980.98
2022-08-31T08:25:31.734Z,980.99
2022-08-31T08:26:31.571Z,981.00
2022-08-31T08:27:31.561Z,981.01
2022-08-31T08:28:40.574Z,981.01
2022-08-31T08:29:32.463Z,980.98
2022-08-31T08:30:31.582Z,980.99
2022-08-31T08:31:31.605Z,980.96
2022-08-31T08:32:31.570Z,981.06
2022-08-31T08:33:31.470Z,981.06
2022-08-31T08:34:32.804Z,981.06
2022-08-31T08:35:31.745Z,981.02
2022-08-31T08:36:31.576Z,981.09
2022-08-31T08:37:56.800Z,981.06
2022-08-31T08:38:31.450Z,981.07
2022-08-31T08:39:31.485Z,981.09
2022-08-31T08:40:31.639Z,981.14
2022-08-31T08:41:31.422Z,981.09
2022-08-31T08:42:31.573Z,981.11
2022-08-31T08:43:31.421Z,981.05
2022-08-31T08:44:31.316Z,981.13
2022-08-31T08:45:31.516Z,981.12
2022-08-31T08:47:38.241Z,981.22
2022-08-31T08:47:43.948Z,981.26
2022-08-31T08:48:31.281Z,981.23
2022-08-31T08:49:31.404Z,981.28
2022-08-31T08:50:31.335Z,981.30
2022-08-31T08:51:31.230Z,981.32
2022-08-31T08:52:31.244Z,981.30
2022-08-31T08:53:31.202Z,981.32
2022-08-31T08:54:31.266Z,981.34
2022-08-31T08:55:31.400Z,981.42
2022-08-31T08:56:33.938Z,981.39
2022-08-31T08:57:31.425Z,981.48
2022-08-31T08:58:31.256Z,981.44
2022-08-31T08:59:31.136Z,981.44
2022-08-31T09:00:31.265Z,981.47
2022-08-31T09:01:31.488Z,981.44
2022-08-31T09:02:31.283Z,981.50
2022-08-31T09:03:31.094Z,981.54
2022-08-31T09:04:31.276Z,981.57
2022-08-31T09:05:31.076Z,981.55
2022-08-31T09:06:32.208Z,981.55
2022-08-31T09:07:31.416Z,981.55
2022-08-31T09:08:31.012Z,981.61
2022-08-31T09:09:31.091Z,981.60
2022-08-31T09:10:30.986Z,981.59
2022-08-31T09:11:31.101Z,981.62
2022-08-31T09:12:31.311Z,981.59
2022-08-31T09:13:30.940Z,981.67
2022-08-31T09:14:30.922Z,981.65
2022-08-31T09:15:31.081Z,981.70
2022-08-31T09:16:31.001Z,981.68
2022-08-31T09:17:30.952Z,981.77
2022-08-31T09:18:30.926Z,981.74
2022-08-31T09:19:31.109Z,981.74
2022-08-31T09:20:30.946Z,981.70
2022-08-31T09:21:30.836Z,981.74
2022-08-31T09:22:30.926Z,981.79
2022-08-31T09:23:31.176Z,981.78
2022-08-31T09:24:30.786Z,981.78
2022-08-31T09:25:30.787Z,981.82
2022-08-31T09:26:30.926Z,981.80
2022-08-31T09:27:30.767Z,981.82
2022-08-31T09:28:30.806Z,981.79
2022-08-31T09:29:30.769Z,981.84
2022-08-31T09:30:30.936Z,981.85
2022-08-31T09:31:30.918Z,981.86
2022-08-31T09:32:30.700Z,981.86
2022-08-31T09:33:30.851Z,981.86
2022-08-31T09:34:30.662Z,981.86
2022-08-31T09:35:30.782Z,981.83
2022-08-31T09:36:30.630Z,981.87
2022-08-31T09:37:30.781Z,981.90
2022-08-31T09:38:30.602Z,981.90
2022-08-31T09:39:36.933Z,981.86
2022-08-31T09:40:30.663Z,981.92
2022-08-31T09:41:30.781Z,981.86
2022-08-31T09:42:30.619Z,981.92
2022-08-31T09:43:30.785Z,981.92
2022-08-31T09:44:30.693Z,981.91
2022-08-31T09:45:30.809Z,981.93
2022-08-31T09:46:30.711Z,981.95
2022-08-31T09:47:30.485Z,981.91
2022-08-31T09:48:30.597Z,981.88
2022-08-31T09:49:30.537Z,981.91
2022-08-31T09:50:31.390Z,981.93
2022-08-31T09:51:30.446Z,981.87
2022-08-31T09:52:30.405Z,981.89
2022-08-31T09:53:30.453Z,981.89
2022-08-31T09:54:30.391Z,981.86
2022-08-31T09:55:30.441Z,981.97
2022-08-31T09:56:30.371Z,981.95
2022-08-31T09:57:30.441Z,981.98
2022-08-31T09:58:30.352Z,981.98
2022-08-31T09:59:30.445Z,981.97
2022-08-31T10:00:30.382Z,982.07
2022-08-31T10:01:30.683Z,982.05
2022-08-31T10:02:30.281Z,982.08
2022-08-31T10:03:30.430Z,982.17
2022-08-31T10:04:30.306Z,982.17
2022-08-31T10:05:30.631Z,982.17
2022-08-31T10:06:30.296Z,982.18
2022-08-31T10:07:30.216Z,982.14
2022-08-31T10:08:30.207Z,982.12
2022-08-31T10:09:30.264Z,982.16
2022-08-31T10:10:31.242Z,982.14
2022-08-31T10:11:30.516Z,982.07
2022-08-31T10:12:30.276Z,982.09
2022-08-31T10:13:30.137Z,982.13
2022-08-31T10:14:30.121Z,982.12
2022-08-31T10:15:30.131Z,982.12
2022-08-31T10:16:30.311Z,982.19
2022-08-31T10:17:32.031Z,982.12
2022-08-31T10:18:30.071Z,982.13
2022-08-31T10:19:30.171Z,982.17
2022-08-31T10:20:30.557Z,982.12
2022-08-31T10:21:30.120Z,982.13
2022-08-31T10:22:30.100Z,982.13
2022-08-31T10:23:30.124Z,982.10
2022-08-31T10:24:30.033Z,982.13
2022-08-31T10:25:29.975Z,982.13
2022-08-31T10:26:29.985Z,982.14
2022-08-31T10:27:30.145Z,982.13
2022-08-31T10:28:30.056Z,982.14
2022-08-31T10:29:29.927Z,982.15
2022-08-31T10:30:29.977Z,982.05
2022-08-31T10:31:30.336Z,982.07
2022-08-31T10:32:29.956Z,982.14
2022-08-31T10:33:29.867Z,982.17
2022-08-31T10:34:30.060Z,982.16
2022-08-31T10:35:29.868Z,982.17
2022-08-31T10:36:29.826Z,982.17
2022-08-31T10:37:29.806Z,982.14
2022-08-31T10:38:29.992Z,982.10
2022-08-31T10:39:29.822Z,982.13
2022-08-31T10:40:29.942Z,982.09
2022-08-31T10:41:29.812Z,982.08
2022-08-31T10:42:29.742Z,982.10
2022-08-31T10:43:31.823Z,982.05
2022-08-31T10:44:29.971Z,982.08
2022-08-31T10:45:29.818Z,982.05
2022-08-31T10:46:29.842Z,982.02
2022-08-31T10:47:33.102Z,982.05
2022-08-31T10:48:29.961Z,982.04
2022-08-31T10:49:29.817Z,982.05
2022-08-31T10:50:29.662Z,982.04
2022-08-31T10:51:29.733Z,982.05
2022-08-31T10:52:29.647Z,982.08
2022-08-31T10:53:29.816Z,982.10
2022-08-31T10:54:29.602Z,982.05
2022-08-31T10:55:29.576Z,982.11
2022-08-31T10:56:29.716Z,982.10
2022-08-31T10:57:31.532Z,982.06
2022-08-31T10:58:29.666Z,982.03
2022-08-31T10:59:29.505Z,982.09
2022-08-31T11:00:29.657Z,982.12
2022-08-31T11:01:29.556Z,982.13
2022-08-31T11:02:29.722Z,982.17
2022-08-31T11:03:29.524Z,982.18
2022-08-31T11:04:29.547Z,982.14
2022-08-31T11:05:29.482Z,982.19
2022-08-31T11:06:29.423Z,982.11
2022-08-31T11:07:29.543Z,982.18
2022-08-31T11:08:29.392Z,982.22
2022-08-31T11:09:29.481Z,982.20
2022-08-31T11:10:29.642Z,982.20
2022-08-31T11:11:29.482Z,982.26
2022-08-31T11:12:29.427Z,982.23
2022-08-31T11:13:29.506Z,982.26
2022-08-31T11:14:29.336Z,982.27
2022-08-31T11:15:29.390Z,982.27
2022-08-31T11:16:30.911Z,982.25
2022-08-31T11:17:29.488Z,982.24
2022-08-31T11:18:29.398Z,982.18
2022-08-31T11:19:29.246Z,982.25
2022-08-31T11:20:29.317Z,982.22
2022-08-31T11:21:29.492Z,982.25
2022-08-31T11:22:29.327Z,982.24
2022-08-31T11:23:29.307Z,982.24
2022-08-31T11:24:31.633Z,982.23
2022-08-31T11:25:29.491Z,982.22
2022-08-31T11:26:29.172Z,982.25
2022-08-31T11:27:29.171Z,982.31
2022-08-31T11:28:29.202Z,982.26
2022-08-31T11:29:29.168Z,982.34
2022-08-31T11:30:29.122Z,982.31
2022-08-31T11:31:29.256Z,982.32
2022-08-31T11:32:29.322Z,982.34
2022-08-31T11:33:29.174Z,982.36
2022-08-31T11:34:29.162Z,982.29
2022-08-31T11:35:29.177Z,982.36
2022-08-31T11:36:29.061Z,982.38
2022-08-31T11:37:29.037Z,982.38
2022-08-31T11:38:29.017Z,982.36
2022-08-31T11:39:29.236Z,982.31
2022-08-31T11:40:29.044Z,982.28
2022-08-31T11:41:28.966Z,982.29
2022-08-31T11:42:29.007Z,982.28
2022-08-31T11:43:28.946Z,982.33
2022-08-31T11:44:28.986Z,982.28
2022-08-31T11:45:28.897Z,982.34
2022-08-31T11:46:29.048Z,982.32
2022-08-31T11:47:28.909Z,982.33
2022-08-31T11:48:29.002Z,982.29
2022-08-31T11:49:28.851Z,982.31
2022-08-31T11:50:29.087Z,982.29
2022-08-31T11:51:28.858Z,982.34
2022-08-31T11:52:28.805Z,982.35
2022-08-31T11:53:28.851Z,982.35
2022-08-31T11:54:29.012Z,982.34
2022-08-31T11:55:28.923Z,982.38
2022-08-31T11:56:28.752Z,982.38
2022-08-31T11:57:28.868Z,982.40
2022-08-31T11:58:29.017Z,982.43
2022-08-31T11:59:28.865Z,982.41
2022-08-31T12:00:28.766Z,982.40
2022-08-31T12:01:28.859Z,982.45
2022-08-31T12:02:28.735Z,982.39
2022-08-31T12:03:28.677Z,982.39
2022-08-31T12:04:28.746Z,982.43
2022-08-31T12:05:28.995Z,982.36
2022-08-31T12:06:28.685Z,982.41
2022-08-31T12:07:28.626Z,982.38
2022-08-31T12:08:28.692Z,982.39
2022-08-31T12:09:28.581Z,982.40
2022-08-31T12:10:28.703Z,982.36
2022-08-31T12:11:28.622Z,982.39
2022-08-31T12:12:28.542Z,982.35
2022-08-31T12:13:28.541Z,982.40
2022-08-31T12:14:28.511Z,982.37
2022-08-31T12:15:28.522Z,982.36
2022-08-31T12:16:28.856Z,982.39
2022-08-31T12:17:28.532Z,982.39
2022-08-31T12:18:28.453Z,982.37
2022-08-31T12:19:28.542Z,982.33
2022-08-31T12:20:28.697Z,982.35
2022-08-31T12:21:28.484Z,982.35
2022-08-31T12:22:28.476Z,982.38
2022-08-31T12:23:30.803Z,982.32
2022-08-31T12:24:28.398Z,982.38
2022-08-31T12:25:28.528Z,982.37
2022-08-31T12:26:28.366Z,982.35
2022-08-31T12:27:28.599Z,982.34
2022-08-31T12:28:29.563Z,982.38